Time;durP1;ratioP1;P1;durP2;ratioP2;P2;SDS_P1;SDS_P2;PMS_P1;PMS_P2;Temp;Humidity;BMP_temperature;BMP_pressure;BME280_temperature;BME280_humidity;BME280_pressure;Samples;Min_cycle;Max_cycle;Signal;HPM_P1;HPM_P2
2021/01/13 00:01:18;;;;;;;8.30;4.75;;;;;;;3.59;83.63;99120.90;2805413;84;21184;-67
2021/01/13 00:05:49;;;;;;;8.70;3.47;;;;;;;3.60;83.71;99133.09;2806817;84;21168;-65
2021/01/13 00:10:35;;;;;;;6.92;3.80;;;;;;;3.58;83.93;99150.28;2807303;84;21216;-65
2021/01/13 00:15:35;;;;;;;3.77;3.20;;;;;;;3.54;83.94;99153.63;2805201;84;21104;-68
2021/01/13 00:19:55;;;;;;;2.55;2.35;;;;;;;3.53;83.95;99136.63;2806930;84;21156;-66
2021/01/13 00:24:07;;;;;;;10.70;3.00;;;;;;;3.32;84.23;99171.83;2828782;82;21109;-66
2021/01/13 00:28:23;;;;;;;4.27;3.60;;;;;;;3.26;84.88;99194.98;2831246;83;21138;-66
2021/01/13 00:32:50;;;;;;;6.22;4.30;;;;;;;3.22;85.50;99204.03;2831042;83;21340;-68
2021/01/13 00:37:00;;;;;;;4.20;2.95;;;;;;;3.14;85.91;99206.32;2831003;84;21114;-67
2021/01/13 00:41:11;;;;;;;5.97;4.00;;;;;;;3.10;86.34;99231.13;2830894;82;21149;-67
2021/01/13 00:45:18;;;;;;;3.72;3.15;;;;;;;3.03;86.86;99233.81;2830773;84;21595;-66
2021/01/13 00:49:27;;;;;;;5.97;3.67;;;;;;;2.90;87.48;99241.69;2830474;84;21580;-65
2021/01/13 00:53:37;;;;;;;9.95;4.65;;;;;;;2.88;87.60;99250.97;2830534;84;21592;-65
2021/01/13 00:57:49;;;;;;;8.93;4.33;;;;;;;2.83;87.78;99246.01;2831018;84;21112;-65
2021/01/13 01:01:55;;;;;;;3.83;3.40;;;;;;;2.87;87.62;99257.16;2831036;83;21588;-66
2021/01/13 01:05:59;;;;;;;13.80;4.33;;;;;;;2.87;87.44;99279.98;2830698;84;21600;-65
2021/01/13 01:10:02;;;;;;;3.22;2.92;;;;;;;2.81;87.54;99287.30;2831102;84;21145;-66
2021/01/13 01:14:10;;;;;;;5.42;2.22;;;;;;;2.76;87.83;99309.58;2831166;84;21130;-66
2021/01/13 01:18:13;;;;;;;3.15;2.10;;;;;;;2.68;87.72;99304.33;2831305;84;21114;-66
2021/01/13 01:22:16;;;;;;;2.05;1.85;;;;;;;2.73;87.12;99315.00;2831107;84;21158;-66
2021/01/13 01:26:20;;;;;;;3.25;2.22;;;;;;;2.79;85.99;99335.15;2822068;84;21607;-65
2021/01/13 01:30:27;;;;;;;2.80;2.27;;;;;;;2.77;84.05;99339.66;2807400;84;21160;-66
2021/01/13 01:34:30;;;;;;;2.10;1.90;;;;;;;2.76;83.31;99339.78;2807567;84;21155;-67
2021/01/13 01:38:33;;;;;;;3.42;2.77;;;;;;;2.70;82.65;99322.63;2808041;84;21176;-67
2021/01/13 01:42:40;;;;;;;9.18;6.25;;;;;;;2.66;82.53;99344.30;2807707;83;21214;-66
2021/01/13 01:46:45;;;;;;;;;;;;;;;2.60;83.18;99349.95;2809904;84;21654;-66
2021/01/13 01:50:48;;;;;;;8.28;2.22;;;;;;;2.64;84.21;99363.70;2807812;84;20538;-65
2021/01/13 01:54:59;;;;;;;3.20;2.65;;;;;;;2.67;84.86;99354.34;2807823;84;21595;-64
2021/01/13 01:59:09;;;;;;;4.80;3.80;;;;;;;2.69;85.03;99355.91;2807928;84;21623;-65
2021/01/13 02:03:14;;;;;;;10.78;6.40;;;;;;;2.74;85.13;99353.45;2808019;84;21184;-66
2021/01/13 02:07:30;;;;;;;5.37;3.08;;;;;;;2.78;85.10;99352.34;2807774;84;21136;-65
2021/01/13 02:11:37;;;;;;;5.60;2.05;;;;;;;2.82;85.51;99359.08;2807693;84;21614;-65
2021/01/13 02:15:42;;;;;;;4.10;2.25;;;;;;;2.83;86.29;99354.19;2808114;84;21184;-66
2021/01/13 02:20:05;;;;;;;5.58;2.95;;;;;;;2.76;87.31;99346.34;2814729;84;21580;-68
2021/01/13 02:24:45;;;;;;;3.35;2.27;;;;;;;2.64;88.28;99374.20;2808741;84;21101;-66
2021/01/13 02:29:20;;;;;;;5.78;3.02;;;;;;;2.69;88.20;99373.47;2803014;84;21168;-66
2021/01/13 02:33:41;;;;;;;3.55;1.52;;;;;;;2.71;87.69;99365.84;2835725;84;21145;-66
2021/01/13 02:38:08;;;;;;;2.22;1.47;;;;;;;2.69;86.98;99359.85;2809436;84;21600;-65
2021/01/13 02:42:24;;;;;;;5.15;1.65;;;;;;;2.75;86.02;99373.52;2835793;82;21165;-65
2021/01/13 02:46:51;;;;;;;7.40;2.12;;;;;;;2.81;84.82;99378.41;2835655;84;21161;-66
2021/01/13 02:50:58;;;;;;;8.90;2.40;;;;;;;2.83;83.90;99377.83;2809563;84;21109;-65
2021/01/13 02:55:05;;;;;;;3.25;2.15;;;;;;;2.88;83.54;99378.37;2836046;84;21117;-65
2021/01/13 02:59:11;;;;;;;3.95;1.17;;;;;;;2.96;82.95;99381.82;2836110;84;21141;-65
2021/01/13 03:03:16;;;;;;;6.03;2.40;;;;;;;3.00;82.39;99381.53;2836016;83;21118;-66
2021/01/13 03:07:25;;;;;;;1.45;0.93;;;;;;;3.08;82.03;99381.03;2835887;84;22067;-66
2021/01/13 03:11:29;;;;;;;2.50;1.42;;;;;;;3.10;81.78;99380.91;2835780;84;21553;-65
2021/01/13 03:15:36;;;;;;;3.37;2.75;;;;;;;3.09;81.63;99383.17;2835679;83;21186;-66
2021/01/13 03:19:50;;;;;;;4.00;1.85;;;;;;;3.10;81.57;99375.66;2835722;83;21141;-66
2021/01/13 03:24:03;;;;;;;5.53;2.37;;;;;;;3.14;81.70;99386.34;2828372;84;21158;-64
2021/01/13 03:28:09;;;;;;;5.33;2.58;;;;;;;3.17;81.15;99387.93;2812901;84;21707;-66
2021/01/13 03:32:21;;;;;;;;;;;;;;;3.12;80.83;99388.22;2815256;84;21588;-66
2021/01/13 03:36:58;;;;;;;2.33;1.92;;;;;;;3.13;80.83;99380.70;2812857;84;20158;-66
2021/01/13 03:41:06;;;;;;;1.92;1.10;;;;;;;3.14;80.61;99382.39;2813018;84;21150;-66
2021/01/13 03:45:13;;;;;;;5.10;1.62;;;;;;;3.19;80.56;99396.09;2812656;84;21146;-64
2021/01/13 03:49:19;;;;;;;2.90;1.72;;;;;;;3.26;80.60;99393.42;2813113;84;21166;-64
2021/01/13 03:53:24;;;;;;;5.42;1.77;;;;;;;3.22;80.37;99398.98;2812688;84;21142;-66
2021/01/13 03:57:51;;;;;;;3.02;1.52;;;;;;;3.21;80.41;99404.72;2812794;84;21119;-65
2021/01/13 04:01:57;;;;;;;6.12;1.95;;;;;;;3.18;80.13;99408.87;2779939;84;21622;-65
2021/01/13 04:06:12;;;;;;;7.10;2.80;;;;;;;3.17;79.99;99404.56;2771498;85;21208;-66
2021/01/13 04:10:16;;;;;;;2.77;2.02;;;;;;;3.15;79.79;99406.45;2844924;83;21168;-65
2021/01/13 04:14:19;;;;;;;6.22;2.17;;;;;;;3.12;79.78;99403.98;2771447;85;21679;-64
2021/01/13 04:18:24;;;;;;;3.42;2.17;;;;;;;3.11;80.41;99411.50;2844706;83;21178;-63
2021/01/13 04:22:27;;;;;;;4.42;2.12;;;;;;;3.13;81.25;99412.25;2771066;85;21208;-73
2021/01/13 04:26:32;;;;;;;11.30;2.55;;;;;;;3.03;82.24;99424.31;2841399;83;21582;-74
2021/01/13 04:30:36;;;;;;;3.92;2.42;;;;;;;2.96;82.74;99418.14;2841032;83;21184;-72
2021/01/13 04:34:40;;;;;;;4.03;3.05;;;;;;;2.92;83.02;99404.81;2840854;83;21133;-73
2021/01/13 04:38:45;;;;;;;3.98;2.77;;;;;;;2.85;83.03;99405.70;2841406;83;21168;-74
2021/01/13 04:43:02;;;;;;;5.33;3.22;;;;;;;2.81;83.20;99395.48;2841123;82;21591;-77
2021/01/13 04:47:07;;;;;;;;;;;;;;;2.87;82.55;99391.13;2843578;83;21622;-75
2021/01/13 04:51:14;;;;;;;6.83;3.37;;;;;;;2.85;82.85;99406.16;2841127;83;20199;-73
2021/01/13 04:55:25;;;;;;;5.53;2.95;;;;;;;2.93;82.96;99417.48;2841137;83;21181;-75
2021/01/13 04:59:56;;;;;;;7.03;3.58;;;;;;;3.00;82.77;99416.14;2841248;83;21145;-73
2021/01/13 05:04:48;;;;;;;4.85;4.28;;;;;;;3.03;82.52;99421.19;2841488;83;21165;-72
2021/01/13 05:09:08;;;;;;;10.65;4.70;;;;;;;2.99;83.23;99418.40;2840973;83;21173;-68
2021/01/13 05:13:15;;;;;;;8.63;4.70;;;;;;;3.04;83.56;99419.42;2840602;83;21127;-70
2021/01/13 05:17:39;;;;;;;5.45;4.60;;;;;;;3.13;83.65;99428.02;2841395;83;21172;-69
2021/01/13 05:21:45;;;;;;;7.67;5.45;;;;;;;3.17;83.74;99432.16;2841253;83;21921;-70
2021/01/13 05:25:51;;;;;;;5.70;4.00;;;;;;;3.19;83.85;99431.58;2841343;83;21160;-68
2021/01/13 05:29:59;;;;;;;6.75;4.72;;;;;;;3.19;84.13;99438.15;2841299;83;21603;-67
2021/01/13 05:34:06;;;;;;;10.80;4.10;;;;;;;3.17;84.37;99443.13;2841496;83;21181;-68
2021/01/13 05:38:19;;;;;;;9.63;5.08;;;;;;;3.19;84.52;99432.03;2841582;83;21178;-68
2021/01/13 05:42:24;;;;;;;8.68;5.37;;;;;;;3.21;84.35;99441.52;2841391;82;21141;-68
2021/01/13 05:46:50;;;;;;;6.37;5.10;;;;;;;3.22;84.02;99444.97;2841057;83;21177;-72
2021/01/13 05:50:55;;;;;;;14.47;6.15;;;;;;;3.23;83.51;99439.63;2841725;83;21117;-70
2021/01/13 05:55:01;;;;;;;11.67;5.43;;;;;;;3.28;82.96;99444.59;2841469;83;21173;-70
2021/01/13 05:59:07;;;;;;;20.25;5.10;;;;;;;3.29;82.65;99448.42;2841078;83;21634;-70
2021/01/13 06:03:12;;;;;;;9.05;4.08;;;;;;;3.25;82.21;99450.88;2841210;83;21654;-69
2021/01/13 06:07:30;;;;;;;6.70;4.17;;;;;;;3.31;82.30;99445.70;2841122;83;21164;-71
2021/01/13 06:11:36;;;;;;;9.45;3.77;;;;;;;3.29;81.99;99452.36;2841118;83;21152;-71
2021/01/13 06:15:43;;;;;;;9.98;5.17;;;;;;;3.31;82.31;99446.16;2841430;83;21627;-70
2021/01/13 06:19:53;;;;;;;20.17;5.33;;;;;;;3.25;82.13;99436.42;2849228;83;21124;-70
2021/01/13 06:23:58;;;;;;;10.00;5.03;;;;;;;3.24;81.92;99449.20;2860072;83;21145;-71
2021/01/13 06:28:33;;;;;;;8.78;4.97;;;;;;;3.20;81.96;99449.03;2844281;83;21192;-70
2021/01/13 06:33:28;;;;;;;8.63;4.55;;;;;;;3.20;82.22;99455.61;2845063;83;21122;-70
2021/01/13 06:37:49;;;;;;;12.93;5.42;;;;;;;3.24;82.30;99452.28;2844819;83;21164;-72
2021/01/13 06:41:52;;;;;;;8.03;4.33;;;;;;;3.28;82.57;99467.77;2820640;83;21210;-71
2021/01/13 06:45:56;;;;;;;18.00;6.87;;;;;;;3.29;82.75;99473.39;2820474;84;21619;-71
2021/01/13 06:49:59;;;;;;;18.82;5.33;;;;;;;3.31;82.98;99481.20;2820761;84;21134;-69
2021/01/13 06:54:05;;;;;;;18.65;5.92;;;;;;;3.31;82.92;99466.73;2820603;84;21169;-71
2021/01/13 06:58:18;;;;;;;13.55;6.42;;;;;;;3.34;82.92;99469.62;2820542;84;21142;-72
2021/01/13 07:02:39;;;;;;;6.92;4.70;;;;;;;3.34;82.78;99478.82;2820801;84;21174;-69
2021/01/13 07:07:06;;;;;;;9.23;4.58;;;;;;;3.38;82.58;99481.64;2820600;84;21151;-68
2021/01/13 07:11:11;;;;;;;8.70;4.67;;;;;;;3.37;82.35;99476.02;2820629;84;21612;-69
2021/01/13 07:15:14;;;;;;;8.95;5.00;;;;;;;3.35;81.97;99488.42;2820506;84;21170;-70
2021/01/13 07:19:17;;;;;;;6.78;5.83;;;;;;;3.43;81.97;99478.23;2820058;84;21133;-69
2021/01/13 07:23:22;;;;;;;8.58;4.42;;;;;;;3.46;81.97;99488.55;2794527;84;21572;-72
2021/01/13 07:27:25;;;;;;;4.90;4.40;;;;;;;3.42;82.56;99477.87;2831685;84;21186;-70
2021/01/13 07:31:30;;;;;;;4.20;2.67;;;;;;;3.41;82.81;99478.81;2832616;84;21187;-70
2021/01/13 07:35:35;;;;;;;12.13;3.45;;;;;;;3.36;82.72;99483.53;2832660;84;21597;-71
2021/01/13 07:40:00;;;;;;;7.15;4.22;;;;;;;3.34;82.85;99488.02;2871031;81;21140;-73
2021/01/13 07:44:18;;;;;;;6.97;4.62;;;;;;;3.33;83.13;99498.16;2870874;81;21196;-69
2021/01/13 07:49:13;;;;;;;10.65;6.20;;;;;;;3.33;83.19;99488.96;2868703;82;21602;-70
2021/01/13 07:53:27;;;;;;;7.30;3.35;;;;;;;3.37;83.49;99493.11;2870782;82;21571;-69
2021/01/13 07:57:35;;;;;;;5.50;3.75;;;;;;;3.34;83.65;99491.51;2871043;82;21638;-72
2021/01/13 08:02:32;;;;;;;4.58;3.30;;;;;;;3.34;83.75;99493.28;2868309;82;21140;-71
2021/01/13 08:06:53;;;;;;;3.92;3.35;;;;;;;3.28;83.77;99509.83;2870702;82;21104;-69
2021/01/13 08:10:59;;;;;;;9.08;5.20;;;;;;;3.24;84.31;99493.89;2871370;82;21183;-68
2021/01/13 08:15:41;;;;;;;6.40;4.90;;;;;;;3.26;84.67;99495.94;2870948;82;21176;-71
2021/01/13 08:20:22;;;;;;;8.93;5.17;;;;;;;3.23;85.11;99507.11;2871370;82;21168;-72
2021/01/13 08:28:48;;;;;;;7.55;4.45;;;;;;;3.24;85.93;99491.26;3116928;76;23401;-69
2021/01/13 08:32:55;;;;;;;6.53;4.87;;;;;;;3.27;85.12;99500.25;3064887;77;21117;-70
2021/01/13 08:36:58;;;;;;;7.20;4.65;;;;;;;3.29;84.72;99489.66;3064548;77;21109;-67
2021/01/13 08:41:21;;;;;;;8.43;6.10;;;;;;;3.33;84.41;99503.42;3065308;77;21132;-70
2021/01/13 08:45:34;;;;;;;11.25;5.65;;;;;;;3.35;83.83;99492.36;3009727;78;21097;-69
2021/01/13 08:49:40;;;;;;;9.18;5.70;;;;;;;3.34;83.52;99498.53;3009731;79;21147;-69
2021/01/13 08:53:44;;;;;;;9.33;3.92;;;;;;;3.34;83.62;99483.63;3009441;79;21137;-70
2021/01/13 08:58:00;;;;;;;7.30;4.80;;;;;;;3.35;83.67;99505.52;3009517;78;22226;-69
2021/01/13 09:02:07;;;;;;;8.30;4.30;;;;;;;3.43;83.30;99512.42;3009715;79;21579;-72
2021/01/13 09:06:27;;;;;;;5.03;3.17;;;;;;;3.50;82.67;99514.19;3009563;79;21565;-67
2021/01/13 09:10:54;;;;;;;8.38;5.75;;;;;;;3.51;81.02;99487.77;3010231;79;21109;-68
2021/01/13 09:19:44;;;;;;;8.88;5.72;;;;;;;3.83;80.38;99523.42;2826182;84;21154;-71
2021/01/13 09:23:53;;;;;;;6.50;4.05;;;;;;;4.00;80.65;99521.83;2826395;84;21145;-70
2021/01/13 09:28:01;;;;;;;8.73;5.53;;;;;;;3.94;80.11;99535.90;2826187;84;21175;-69
2021/01/13 09:32:17;;;;;;;10.05;4.90;;;;;;;3.86;79.90;99513.55;2826399;84;21169;-69
2021/01/13 09:36:21;;;;;;;10.25;4.47;;;;;;;3.91;79.87;99522.92;2826133;84;21137;-70
2021/01/13 09:40:30;;;;;;;9.93;4.53;;;;;;;3.88;79.37;99518.72;2825065;84;21185;-68
2021/01/13 09:44:37;;;;;;;19.75;4.75;;;;;;;3.99;79.18;99524.59;2814649;84;21650;-70
2021/01/13 09:48:40;;;;;;;;;;;;;;;3.90;78.32;99522.09;2825366;84;21155;-70
2021/01/13 09:52:47;;;;;;;5.53;3.92;;;;;;;3.93;78.02;99527.14;2822948;83;20158;-69
2021/01/13 09:56:55;;;;;;;4.73;2.43;;;;;;;4.12;78.08;99522.80;2822978;83;21143;-67
2021/01/13 10:01:05;;;;;;;8.00;3.72;;;;;;;4.26;77.01;99522.34;2822692;84;21158;-70
2021/01/13 10:05:09;;;;;;;7.97;3.90;;;;;;;4.29;76.78;99519.05;2823205;83;21182;-68
2021/01/13 10:09:18;;;;;;;8.53;3.22;;;;;;;4.32;76.29;99515.34;2822828;84;21134;-68
2021/01/13 10:13:22;;;;;;;6.97;4.45;;;;;;;4.26;75.84;99511.81;2822968;84;21155;-69
2021/01/13 10:17:27;;;;;;;8.55;3.90;;;;;;;4.29;76.64;99504.56;2826032;83;21191;-69
2021/01/13 10:21:40;;;;;;;;;;;;;;;4.23;75.33;99509.39;2834035;84;21121;-70
2021/01/13 10:25:44;;;;;;;12.58;5.08;;;;;;;4.24;76.29;99525.10;2831495;84;20179;-68
2021/01/13 10:29:48;;;;;;;7.62;3.45;;;;;;;4.19;75.75;99500.85;2831613;84;21737;-68
2021/01/13 10:33:54;;;;;;;6.67;3.80;;;;;;;4.24;75.07;99511.08;2831612;84;21195;-68
2021/01/13 10:37:59;;;;;;;10.38;4.75;;;;;;;4.25;74.14;99504.87;2831625;84;21606;-69
2021/01/13 10:42:07;;;;;;;9.20;3.45;;;;;;;4.47;74.61;99515.24;2831488;84;21140;-68
2021/01/13 10:46:12;;;;;;;8.05;3.87;;;;;;;4.64;74.55;99515.41;2831397;84;21692;-69
2021/01/13 10:50:19;;;;;;;5.40;3.40;;;;;;;4.69;74.19;99508.84;2831538;84;21600;-70
2021/01/13 10:54:26;;;;;;;6.17;4.17;;;;;;;4.70;73.67;99491.27;2831540;84;21152;-69
2021/01/13 10:58:31;;;;;;;10.43;4.70;;;;;;;4.75;73.31;99485.68;2831664;84;21562;-69
2021/01/13 11:02:35;;;;;;;15.00;4.65;;;;;;;4.76;73.89;99495.27;2831549;83;21634;-70
2021/01/13 11:06:39;;;;;;;12.07;4.20;;;;;;;4.70;73.96;99492.09;2831223;84;21615;-68
2021/01/13 11:10:43;;;;;;;3.67;2.87;;;;;;;4.76;73.78;99470.23;2832144;84;21165;-69
2021/01/13 11:14:52;;;;;;;5.62;3.98;;;;;;;4.75;73.76;99490.95;2831681;84;21180;-70
2021/01/13 11:18:55;;;;;;;11.95;3.87;;;;;;;4.83;74.14;99484.65;2856479;83;21725;-69
2021/01/13 11:27:20;;;;;;;7.58;3.30;;;;;;;4.80;73.36;99469.89;3116894;76;23552;-68
2021/01/13 11:31:24;;;;;;;5.78;3.85;;;;;;;4.80;74.06;99475.65;3065306;77;21121;-66
2021/01/13 11:35:41;;;;;;;8.13;4.85;;;;;;;4.70;74.46;99478.91;3064964;77;21109;-66
2021/01/13 11:40:06;;;;;;;17.55;4.03;;;;;;;4.74;74.51;99474.28;3064904;77;21121;-67
2021/01/13 11:44:35;;;;;;;7.87;4.77;;;;;;;4.72;74.70;99468.28;3023568;77;21093;-70
2021/01/13 11:48:50;;;;;;;10.28;5.05;;;;;;;4.70;75.05;99459.16;3010068;79;21125;-71
2021/01/13 11:53:01;;;;;;;14.63;6.15;;;;;;;4.73;75.61;99465.19;3009035;79;21559;-68
2021/01/13 11:57:26;;;;;;;11.00;4.10;;;;;;;4.65;75.44;99449.42;3010052;79;21101;-68
2021/01/13 12:01:33;;;;;;;10.03;4.30;;;;;;;4.71;76.25;99461.33;3009842;78;21101;-69
2021/01/13 12:05:38;;;;;;;5.30;4.08;;;;;;;4.74;76.22;99445.30;3010125;79;21124;-66
2021/01/13 12:09:42;;;;;;;8.58;4.05;;;;;;;4.92;76.58;99436.57;3010418;78;21587;-68
2021/01/13 12:13:46;;;;;;;8.78;3.65;;;;;;;5.09;75.66;99438.44;3009514;79;21576;-69
2021/01/13 12:17:53;;;;;;;9.43;2.90;;;;;;;5.13;74.52;99431.52;3009511;79;21117;-68
2021/01/13 12:21:59;;;;;;;9.23;3.27;;;;;;;5.13;74.23;99426.74;3008487;79;21132;-68
2021/01/13 12:26:39;;;;;;;9.25;4.03;;;;;;;5.11;73.93;99422.03;3010031;78;21181;-69
2021/01/13 12:30:56;;;;;;;8.25;2.80;;;;;;;5.10;74.34;99434.39;3010725;78;21108;-70
2021/01/13 12:35:00;;;;;;;8.10;3.90;;;;;;;4.95;74.04;99424.48;2988104;79;21157;-67
2021/01/13 12:39:04;;;;;;;5.62;2.87;;;;;;;4.75;75.14;99423.77;3009883;78;21125;-67
2021/01/13 12:43:20;;;;;;;6.37;4.55;;;;;;;4.63;76.14;99438.16;3009543;77;22166;-66
2021/01/13 12:47:26;;;;;;;5.80;3.35;;;;;;;4.60;77.46;99438.38;3009725;78;21460;-66
2021/01/13 12:51:30;;;;;;;7.25;4.20;;;;;;;4.62;78.12;99436.48;3009790;78;21085;-72
2021/01/13 12:55:33;;;;;;;7.30;3.35;;;;;;;4.63;78.53;99434.20;3010426;79;21148;-67
2021/01/13 12:59:36;;;;;;;12.60;3.80;;;;;;;4.66;78.76;99426.08;3009079;78;21101;-68
2021/01/13 13:03:40;;;;;;;9.35;4.87;;;;;;;4.67;78.89;99427.77;3009603;79;21173;-67
2021/01/13 13:07:44;;;;;;;10.32;5.10;;;;;;;4.67;78.95;99417.72;3009669;78;21415;-66
2021/01/13 13:11:47;;;;;;;11.03;5.72;;;;;;;4.64;79.04;99410.86;3009650;79;21567;-67
2021/01/13 13:15:50;;;;;;;12.40;4.22;;;;;;;4.62;79.00;99414.55;3009466;79;21093;-68
2021/01/13 13:19:53;;;;;;;9.65;4.37;;;;;;;4.53;79.17;99416.89;3009432;79;21559;-66
2021/01/13 13:23:57;;;;;;;8.30;4.92;;;;;;;4.50;79.52;99420.21;3009447;79;21364;-67
2021/01/13 13:28:01;;;;;;;7.25;4.65;;;;;;;4.52;79.71;99425.75;3040791;77;21129;-69
2021/01/13 13:32:05;;;;;;;7.25;5.22;;;;;;;4.54;79.89;99425.66;3063908;77;21109;-69
2021/01/13 13:36:09;;;;;;;9.20;4.83;;;;;;;4.53;79.47;99408.17;3063888;77;21125;-68
2021/01/13 13:40:14;;;;;;;6.72;3.20;;;;;;;4.46;79.14;99395.05;3063998;77;21122;-68
2021/01/13 13:44:17;;;;;;;7.35;3.33;;;;;;;4.36;78.86;99392.22;3063531;77;21617;-70
2021/01/13 13:48:21;;;;;;;12.88;4.42;;;;;;;4.27;78.70;99377.91;3063545;77;21682;-66
2021/01/13 13:52:25;;;;;;;3.00;2.67;;;;;;;4.40;78.89;99399.80;3063678;77;21122;-67
2021/01/13 13:56:30;;;;;;;8.88;3.77;;;;;;;4.41;79.12;99393.59;3059119;77;21085;-67
2021/01/13 14:00:34;;;;;;;4.80;2.80;;;;;;;4.40;78.71;99401.58;3063546;77;21137;-68
2021/01/13 14:04:37;;;;;;;6.58;3.10;;;;;;;4.45;78.60;99396.86;3063648;77;21587;-67
2021/01/13 14:08:40;;;;;;;7.05;3.40;;;;;;;4.58;78.24;99384.48;3063647;77;21587;-69
2021/01/13 14:12:46;;;;;;;6.55;2.45;;;;;;;4.64;77.55;99392.91;3063842;77;21192;-67
2021/01/13 14:16:53;;;;;;;5.33;3.80;;;;;;;4.66;77.57;99393.16;3064313;77;21137;-67
2021/01/13 14:20:56;;;;;;;7.50;2.58;;;;;;;4.70;76.85;99378.80;3055814;77;21151;-69
2021/01/13 14:25:00;;;;;;;7.92;4.40;;;;;;;4.73;76.68;99379.56;3007975;79;21641;-67
2021/01/13 14:29:05;;;;;;;4.30;2.75;;;;;;;4.75;76.78;99386.88;3005162;79;21451;-67
2021/01/13 14:33:09;;;;;;;6.12;2.58;;;;;;;4.73;76.77;99381.70;3005349;79;21096;-68
2021/01/13 14:37:13;;;;;;;4.87;2.45;;;;;;;4.68;76.74;99379.88;3004965;79;21155;-68
2021/01/13 14:41:16;;;;;;;15.03;4.72;;;;;;;4.68;76.83;99383.84;3004634;79;21135;-72
2021/01/13 14:45:19;;;;;;;30.50;8.10;;;;;;;4.65;77.12;99380.11;3001285;78;21129;-66
2021/01/13 14:49:22;;;;;;;9.60;5.03;;;;;;;4.66;77.21;99375.20;2998234;79;21148;-65
2021/01/13 14:53:26;;;;;;;10.65;5.65;;;;;;;4.65;77.04;99367.77;2998401;79;21641;-66
2021/01/13 14:57:29;;;;;;;12.43;5.50;;;;;;;4.68;76.99;99371.48;3003960;79;21125;-66
2021/01/13 15:01:32;;;;;;;4.87;3.60;;;;;;;4.68;76.73;99361.44;2998015;79;21147;-66
2021/01/13 15:05:39;;;;;;;7.92;3.80;;;;;;;4.65;76.73;99353.27;3016650;77;21102;-67
2021/01/13 15:09:42;;;;;;;8.73;2.83;;;;;;;4.64;76.79;99346.32;3008692;77;21117;-66
2021/01/13 15:13:47;;;;;;;5.78;4.12;;;;;;;4.65;76.73;99351.95;3005900;79;21591;-66
2021/01/13 15:17:50;;;;;;;6.22;4.40;;;;;;;4.65;76.54;99355.91;3007410;79;21160;-67
2021/01/13 15:21:59;;;;;;;11.85;4.55;;;;;;;4.67;76.38;99350.05;3006869;79;22008;-66
2021/01/13 15:26:04;;;;;;;11.78;4.90;;;;;;;4.64;76.19;99346.32;3006325;77;21148;-67
2021/01/13 15:30:08;;;;;;;6.22;4.00;;;;;;;4.66;75.73;99330.42;3005706;79;21101;-67
2021/01/13 15:34:11;;;;;;;5.37;3.58;;;;;;;4.61;75.60;99332.06;3008736;79;21117;-66
2021/01/13 15:38:17;;;;;;;6.55;3.85;;;;;;;4.61;75.60;99321.98;3008414;79;21133;-64
2021/01/13 15:42:19;;;;;;;5.30;3.15;;;;;;;4.60;75.71;99319.84;3008459;77;21170;-65
2021/01/13 15:46:24;;;;;;;5.00;3.15;;;;;;;4.55;75.56;99318.03;3008027;77;21646;-65
2021/01/13 15:50:30;;;;;;;8.63;4.28;;;;;;;4.51;75.74;99303.38;3006945;77;21584;-65
2021/01/13 15:54:38;;;;;;;;;;;;;;;4.52;75.63;99303.73;3011418;79;21125;-73
2021/01/13 15:59:07;;;;;;;;;;;;;;;4.46;75.30;99301.56;3010686;79;20206;-73
2021/01/13 16:03:17;;;;;;;7.05;3.85;;;;;;;4.40;75.25;99295.79;3011434;77;20163;-74
2021/01/13 16:07:26;;;;;;;7.65;4.80;;;;;;;4.29;75.88;99291.76;3049765;77;21090;-73
2021/01/13 16:11:29;;;;;;;11.80;4.65;;;;;;;4.27;76.06;99291.89;3049585;78;21102;-71
2021/01/13 16:15:37;;;;;;;11.63;4.12;;;;;;;4.26;76.17;99291.98;3049508;78;21141;-74
2021/01/13 16:19:48;;;;;;;5.60;3.98;;;;;;;4.25;76.47;99292.94;3049900;78;21157;-74
2021/01/13 16:23:52;;;;;;;8.17;3.13;;;;;;;4.23;76.45;99281.67;3049665;78;21585;-75
2021/01/13 16:28:01;;;;;;;11.65;3.92;;;;;;;4.25;76.27;99277.14;3032440;77;21650;-74
2021/01/13 16:32:16;;;;;;;9.15;3.87;;;;;;;4.28;75.92;99258.03;3116514;76;22848;-74
2021/01/13 16:36:21;;;;;;;5.70;3.50;;;;;;;4.26;75.66;99263.02;3064861;77;21626;-75
2021/01/13 16:40:27;;;;;;;7.95;4.37;;;;;;;4.29;75.98;99268.06;3046035;76;21101;-73
2021/01/13 16:44:34;;;;;;;;;;;;;;;4.27;75.89;99259.44;3012173;77;21145;-75
2021/01/13 16:48:40;;;;;;;8.00;5.37;;;;;;;4.31;75.86;99267.47;3009314;78;20188;-77
2021/01/13 16:52:49;;;;;;;;;;;;;;;4.31;75.70;99256.94;3012086;79;21531;-76
2021/01/13 16:57:19;;;;;;;4.50;3.60;;;;;;;4.33;75.79;99250.27;2886241;81;20166;-76
2021/01/13 17:01:27;;;;;;;7.90;4.12;;;;;;;4.35;75.74;99243.09;2886277;82;21636;-77
2021/01/13 17:05:32;;;;;;;8.20;4.37;;;;;;;4.35;75.53;99251.84;2861178;83;21614;-75
2021/01/13 17:09:39;;;;;;;14.70;4.75;;;;;;;4.36;75.67;99238.19;2860624;83;21634;-74
2021/01/13 17:13:55;;;;;;;6.78;3.62;;;;;;;4.38;75.80;99234.96;2860698;82;21173;-75
2021/01/13 17:18:34;;;;;;;6.25;4.17;;;;;;;4.35;76.11;99232.56;2839545;83;21173;-78
2021/01/13 17:22:49;;;;;;;6.83;4.25;;;;;;;4.30;76.35;99223.67;2845049;81;21145;-75
2021/01/13 17:26:57;;;;;;;7.20;4.40;;;;;;;4.28;76.34;99220.31;2848778;81;21152;-77
2021/01/13 17:31:12;;;;;;;9.08;5.30;;;;;;;4.29;76.39;99229.89;2860108;83;21192;-74
2021/01/13 17:35:23;;;;;;;7.55;4.62;;;;;;;4.25;76.11;99215.27;2860897;83;21109;-66
2021/01/13 17:39:30;;;;;;;4.75;4.25;;;;;;;4.24;76.23;99212.28;2860571;83;21183;-63
2021/01/13 17:43:34;;;;;;;5.30;4.15;;;;;;;4.29;76.45;99208.36;2833435;82;21571;-64
2021/01/13 17:47:38;;;;;;;6.17;4.87;;;;;;;4.36;76.38;99191.64;2812838;84;21595;-63
2021/01/13 17:51:44;;;;;;;9.05;3.92;;;;;;;4.38;76.18;99190.20;2812614;84;21709;-63
2021/01/13 17:55:47;;;;;;;6.65;4.75;;;;;;;4.42;76.28;99185.92;2811284;83;21592;-63
2021/01/13 17:59:51;;;;;;;4.35;3.72;;;;;;;4.41;76.33;99186.88;2805712;83;21145;-65
2021/01/13 18:03:58;;;;;;;7.55;4.85;;;;;;;4.40;76.43;99181.70;2826725;82;21184;-65
2021/01/13 18:08:03;;;;;;;8.03;4.60;;;;;;;4.37;76.80;99177.98;2809964;83;21144;-65
2021/01/13 18:12:10;;;;;;;5.95;3.15;;;;;;;4.38;76.99;99172.63;2812145;83;21603;-64
2021/01/13 18:16:14;;;;;;;11.83;4.55;;;;;;;4.36;77.14;99165.31;2806080;83;21137;-65
2021/01/13 18:20:17;;;;;;;7.15;5.40;;;;;;;4.36;77.28;99160.05;2810507;84;21617;-65
2021/01/13 18:24:20;;;;;;;7.67;4.95;;;;;;;4.36;77.46;99152.16;2827114;83;22234;-65
2021/01/13 18:28:24;;;;;;;5.90;3.87;;;;;;;4.34;77.43;99143.99;2832897;83;21145;-64
2021/01/13 18:32:27;;;;;;;6.05;3.70;;;;;;;4.29;77.30;99141.69;2857901;83;21591;-65
2021/01/13 18:36:34;;;;;;;8.53;5.53;;;;;;;4.28;77.34;99142.19;2803744;84;22047;-64
2021/01/13 18:40:42;;;;;;;10.18;5.22;;;;;;;4.28;77.23;99129.48;2802440;84;21145;-66
2021/01/13 18:44:45;;;;;;;;;;;;;;;4.28;77.21;99129.48;2806590;83;21196;-64
2021/01/13 18:48:48;;;;;;;10.95;6.20;;;;;;;4.28;76.98;99116.32;2804526;84;20202;-65
2021/01/13 18:52:53;;;;;;;13.95;5.60;;;;;;;4.29;76.78;99110.09;2804577;84;21571;-64
2021/01/13 18:56:57;;;;;;;12.10;6.42;;;;;;;4.25;76.76;99091.08;2812046;83;21176;-64
2021/01/13 19:01:03;;;;;;;13.15;7.58;;;;;;;4.26;76.74;99091.91;2813430;84;21693;-64
2021/01/13 19:05:07;;;;;;;;;;;;;;;4.26;76.64;99087.50;2818864;83;21168;-64
2021/01/13 19:09:10;;;;;;;9.20;6.03;;;;;;;4.25;76.67;99080.55;2816575;84;20165;-66
2021/01/13 19:13:14;;;;;;;8.78;5.80;;;;;;;4.26;76.56;99077.42;2816357;84;21619;-64
2021/01/13 19:17:18;;;;;;;7.62;4.92;;;;;;;4.26;76.60;99076.97;2833583;83;21149;-66
2021/01/13 19:21:26;;;;;;;7.50;5.10;;;;;;;4.27;76.48;99069.43;2845149;83;21160;-64
2021/01/13 19:25:29;;;;;;;9.10;4.62;;;;;;;4.31;76.21;99052.91;2874819;82;21143;-64
2021/01/13 19:29:37;;;;;;;12.37;4.92;;;;;;;4.36;75.87;99052.56;2873709;82;21587;-65
2021/01/13 19:33:40;;;;;;;7.83;4.10;;;;;;;4.38;75.68;99048.02;2874387;82;21614;-64
2021/01/13 19:37:48;;;;;;;7.33;3.95;;;;;;;4.37;75.40;99046.34;2874459;82;21543;-65
2021/01/13 19:41:51;;;;;;;7.83;3.70;;;;;;;4.39;75.17;99032.58;2866125;81;21209;-64
2021/01/13 19:45:54;;;;;;;4.92;4.15;;;;;;;4.36;75.03;99020.50;2828183;83;21145;-64
2021/01/13 19:49:58;;;;;;;17.15;3.87;;;;;;;4.38;74.73;99015.95;2816471;84;21141;-66
2021/01/13 19:54:03;;;;;;;7.05;3.02;;;;;;;4.39;74.94;99017.63;2821786;83;21737;-65
2021/01/13 19:58:07;;;;;;;6.90;4.22;;;;;;;4.46;74.48;99006.16;2874801;82;21582;-65
2021/01/13 20:02:10;;;;;;;8.10;4.12;;;;;;;4.48;74.21;99005.55;2876209;82;21539;-65
2021/01/13 20:06:14;;;;;;;4.40;3.65;;;;;;;4.50;73.85;98994.88;2832797;82;21204;-65